AirNav   Pilot Hours Calculator
 
 294 users online  

12T Ferris Red Oak Municipal Heliport
Ferris/Red Oak, Texas, USA

GOING TO FERRIS/RED OAK?


FAA INFORMATION EFFECTIVE 28 MARCH 2019

Location

FAA Identifier: 12T
Lat/Long: 32-31-44.9900N / 096-43-40.4800W
32-31.749833N / 096-43.674667W
32.5291639 / -96.7279111
(estimated)
Elevation: 510 ft. / 155 m (estimated)
Variation: 06E (1995)
From city: 4 miles N of central business district of the associated city
Time zone: UTC -5 (UTC -6 during Standard Time)
Zip code: 75125

Heliport Operations

Heliport use: Open to the public
Activation date: 06/1997
Control tower: no
ARTCC: FORT WORTH CENTER
FSS: FORT WORTH FLIGHT SERVICE STATION
NOTAMs facility: FTW (NOTAM-D service available)
Attendance: UNATNDD
Wind indicator: yes
Segmented circle: no

Heliport Communications

CTAF: 122.9
WX AWOS-3 at LNC (3 nm N): 118.975 (972-227-0471)
WX AWOS-3 at JWY (10 nm SW): 119.575 (972-937-4747)
WX ASOS at RBD (12 nm NW): PHONE 214-330-5317
WX AWOS-3 at 49T (15 nm N): 135.425 (214-670-1243)
WX AWOS-3 at HQZ (16 nm NE): 118.175 (972-222-7631)
WX AWOS-3P at GPM (19 nm NW): 118.475 (972-606-1433)
WX ASOS at DAL (20 nm N): PHONE 214-353-1551

Nearby radio navigation aids

VOR radial/distance  VOR name  Freq  Var
CVEr152/23.4COWBOY VOR/DME116.2006E
TTTr136/25.8MAVERICK VOR/DME113.1006E
FUZr127/31.4RANGER VORTAC115.7006E
CQYr303/33.0CEDAR CREEK VORTAC114.8006E

 
NDB name  Hdg/Dist  Freq  Var  ID
MESQUITE208/19.624803EPQF .--. --.- ..-.
TRAVIS234/27.926006EAVZ .- ...- --..
POWELL325/31.834406ECGQ -.-. --. --.-
CORSICANA325/34.539606ECRS -.-. .-. ...
CADDO MILLS212/39.131606EMII -- .. ..

Heliport Services

Runway Information

Helipad H1

Dimensions: 40 x 40 ft. / 12 x 12 m
Surface: concrete, in good condition
Traffic pattern: leftleft
Markings: basic, in fair condition

Heliport Ownership and Management from official FAA records

Ownership: Publicly-owned
Owner: CITIES OF FERRIS & RED OAK
100 TOWN PLAZA
FERRIS, TX 75125
Phone 972-544-3328
CITY OF FERRIS
Manager: BILL JORDAN
100 TOWN PLAZA
FERRIS, TX 75125
Phone 972-544-2100
CITY OF FERRIS PUBLIC WORKS. ALSO 972-544-2965

Additional Remarks

A52-H1 3 FT FENCE 80 FT NORTH, 22 FT TREES, 265 FT NORTH, 111 FT UNMKD POWERLINE 960 FT EAST, ROAD 102 FT SOUTH & 35 FT UNMKD POWERLINE 416 FT WEST.
A57-H1 APCH RATIO TO NORTH 12:1, EAST 8:1, SOUTH 17:1, WEST 6:1.
FOR CD CTC REGIONAL APCH AT 972-615-2799.

Instrument Procedures

There are no published instrument procedures at 12T.

Some nearby airports with instrument procedures:

KLNC - Lancaster Regional Airport (3 nm N)
KJWY - Mid-Way Regional Airport (10 nm SW)
KRBD - Dallas Executive Airport (12 nm NW)
F41 - Ennis Municipal Airport (12 nm S)
KHQZ - Mesquite Metro Airport (16 nm NE)
KGPM - Grand Prairie Municipal Airport (19 nm NW)
KDAL - Dallas Love Field Airport (20 nm N)
 
Loc | Ops | Rwys | IFR | FBO | Links
Com | Nav | Svcs | Stats | Notes
Area around 12T (Ferris Red Oak Municipal Heliport)
 
Road maps at: MapQuest Bing Google
 
Aerial photo
No photo
 
Sectional chart

 
Airport distance calculator
Flying to Ferris Red Oak Municipal Heliport? Find the distance to fly.

From to 12T

Sunrise and sunset
Times for 20-Apr-2019
 Local
(UTC-5)
 Zulu
(UTC)
Morning civil twilight06:2711:27
Sunrise06:5311:53
Sunset19:5900:59
Evening civil twilight20:2501:25

Current date and time
Zulu (UTC)  20-Apr-2019 07:31:30
Local (UTC-5)  20-Apr-2019 02:31:30
 
METAR
KLNC 
3nm N 
200715Z AUTO 00000KT 10SM CLR 09/06 A3007 RMK AO2 T00870055
KJWY 
10nm SW 
200715Z AUTO 00000KT 10SM CLR 09/05 A3008 RMK AO2 T00940052
KRBD 
12nm NW 
200653Z AUTO 26006KT 10SM CLR 11/04 A3005 RMK AO2 SLP173 T01110044
KHQZ 
16nm NE 
200715Z AUTO 27005KT 10SM CLR 12/05 A3006 RMK AO1 T01160051
KGPM 
19nm NW 
200715Z AUTO 00000KT 10SM CLR 10/05 A3007 RMK AO2 T01040047
TAF
KDAL 
20nm N 
200520Z 2006/2106 29003KT P6SM SKC FM201700 18011KT P6SM SKC
KGKY 
21nm NW 
200520Z 2006/2106 27003KT P6SM SKC FM201700 18011KT P6SM SKC
NOTAMs
Click for the latest NOTAMs
NOTAMs are issued by the DoD/FAA and will open in a separate window not controlled by AirNav.

 

 
 

Would you like to see your business listed on this page?

 If your business provides an interesting product or service to pilots, flight crews, aircraft, or users of the Ferris Red Oak Municipal Heliport, you should consider listing it here.  To start the listing process, click on the button below
 
Add a business
 

Other Pages about Ferris Red Oak Municipal Heliport

Update a link
 
Copyright © AirNav, LLC. All rights reserved. Privacy Policy  Contact